sensor_id;sensor_type;location;lat;lon;timestamp;P1;durP1;ratioP1;P2;durP2;ratioP2
41201;SDS011;26936;50.524;8.684;2023-06-22T00:01:16;9.23;;;7.60;;
41201;SDS011;26936;50.524;8.684;2023-06-22T00:03:41;12.20;;;8.57;;
41201;SDS011;26936;50.524;8.684;2023-06-22T00:06:07;12.52;;;7.90;;
41201;SDS011;26936;50.524;8.684;2023-06-22T00:08:32;10.67;;;7.53;;
41201;SDS011;26936;50.524;8.684;2023-06-22T00:10:57;12.43;;;8.68;;
41201;SDS011;26936;50.524;8.684;2023-06-22T00:13:22;10.37;;;8.30;;
41201;SDS011;26936;50.524;8.684;2023-06-22T00:15:48;10.55;;;8.48;;
41201;SDS011;26936;50.524;8.684;2023-06-22T00:18:13;12.43;;;9.00;;
41201;SDS011;26936;50.524;8.684;2023-06-22T00:20:38;11.40;;;9.20;;
41201;SDS011;26936;50.524;8.684;2023-06-22T00:23:05;13.60;;;8.75;;
41201;SDS011;26936;50.524;8.684;2023-06-22T00:25:37;12.45;;;8.15;;
41201;SDS011;26936;50.524;8.684;2023-06-22T00:28:04;11.82;;;8.13;;
41201;SDS011;26936;50.524;8.684;2023-06-22T00:30:31;9.73;;;8.05;;
41201;SDS011;26936;50.524;8.684;2023-06-22T00:32:57;9.20;;;7.78;;
41201;SDS011;26936;50.524;8.684;2023-06-22T00:35:23;12.48;;;8.05;;
41201;SDS011;26936;50.524;8.684;2023-06-22T00:37:57;10.50;;;8.10;;
41201;SDS011;26936;50.524;8.684;2023-06-22T00:40:26;10.75;;;8.02;;
41201;SDS011;26936;50.524;8.684;2023-06-22T00:42:54;11.30;;;7.95;;
41201;SDS011;26936;50.524;8.684;2023-06-22T00:45:20;10.68;;;8.05;;
41201;SDS011;26936;50.524;8.684;2023-06-22T00:47:47;9.65;;;7.50;;
41201;SDS011;26936;50.524;8.684;2023-06-22T00:50:15;11.68;;;8.48;;
41201;SDS011;26936;50.524;8.684;2023-06-22T00:52:45;9.15;;;8.05;;
41201;SDS011;26936;50.524;8.684;2023-06-22T00:55:18;11.30;;;8.27;;
41201;SDS011;26936;50.524;8.684;2023-06-22T00:57:46;11.80;;;8.48;;
41201;SDS011;26936;50.524;8.684;2023-06-22T01:00:12;10.45;;;9.35;;
41201;SDS011;26936;50.524;8.684;2023-06-22T01:02:45;13.52;;;8.88;;
41201;SDS011;26936;50.524;8.684;2023-06-22T01:05:14;10.63;;;8.70;;
41201;SDS011;26936;50.524;8.684;2023-06-22T01:07:56;12.05;;;9.38;;
41201;SDS011;26936;50.524;8.684;2023-06-22T01:16:05;12.57;;;9.60;;
41201;SDS011;26936;50.524;8.684;2023-06-22T01:18:35;11.93;;;9.57;;
41201;SDS011;26936;50.524;8.684;2023-06-22T01:21:02;14.00;;;9.73;;
41201;SDS011;26936;50.524;8.684;2023-06-22T01:26:43;20.30;;;10.73;;
41201;SDS011;26936;50.524;8.684;2023-06-22T01:29:19;16.05;;;10.88;;
41201;SDS011;26936;50.524;8.684;2023-06-22T01:31:46;18.48;;;11.80;;
41201;SDS011;26936;50.524;8.684;2023-06-22T01:34:13;14.68;;;11.27;;
41201;SDS011;26936;50.524;8.684;2023-06-22T01:36:40;15.77;;;11.77;;
41201;SDS011;26936;50.524;8.684;2023-06-22T01:39:05;15.35;;;11.77;;
41201;SDS011;26936;50.524;8.684;2023-06-22T01:41:34;15.10;;;11.57;;
41201;SDS011;26936;50.524;8.684;2023-06-22T01:44:00;18.85;;;12.48;;
41201;SDS011;26936;50.524;8.684;2023-06-22T01:46:27;17.25;;;12.05;;
41201;SDS011;26936;50.524;8.684;2023-06-22T01:48:54;15.93;;;13.00;;
41201;SDS011;26936;50.524;8.684;2023-06-22T01:51:20;16.02;;;12.18;;
41201;SDS011;26936;50.524;8.684;2023-06-22T01:53:45;16.48;;;12.52;;
41201;SDS011;26936;50.524;8.684;2023-06-22T01:56:12;16.58;;;12.40;;
41201;SDS011;26936;50.524;8.684;2023-06-22T02:01:27;15.38;;;12.65;;
41201;SDS011;26936;50.524;8.684;2023-06-22T02:04:03;17.52;;;12.77;;
41201;SDS011;26936;50.524;8.684;2023-06-22T02:06:35;17.13;;;13.30;;
41201;SDS011;26936;50.524;8.684;2023-06-22T02:09:05;17.67;;;13.13;;
41201;SDS011;26936;50.524;8.684;2023-06-22T02:11:34;14.55;;;12.60;;
41201;SDS011;26936;50.524;8.684;2023-06-22T02:14:00;16.88;;;13.50;;
41201;SDS011;26936;50.524;8.684;2023-06-22T02:16:25;16.23;;;13.02;;
41201;SDS011;26936;50.524;8.684;2023-06-22T02:18:54;15.45;;;13.43;;
41201;SDS011;26936;50.524;8.684;2023-06-22T02:21:20;19.20;;;13.67;;
41201;SDS011;26936;50.524;8.684;2023-06-22T02:23:46;18.00;;;14.35;;
41201;SDS011;26936;50.524;8.684;2023-06-22T02:26:12;18.45;;;14.38;;
41201;SDS011;26936;50.524;8.684;2023-06-22T02:28:37;17.77;;;14.18;;
41201;SDS011;26936;50.524;8.684;2023-06-22T02:31:03;16.10;;;13.17;;
41201;SDS011;26936;50.524;8.684;2023-06-22T02:33:28;18.15;;;14.10;;
41201;SDS011;26936;50.524;8.684;2023-06-22T02:35:53;19.27;;;13.43;;
41201;SDS011;26936;50.524;8.684;2023-06-22T02:38:19;18.02;;;13.05;;
41201;SDS011;26936;50.524;8.684;2023-06-22T02:40:45;17.63;;;13.20;;
41201;SDS011;26936;50.524;8.684;2023-06-22T02:43:10;16.80;;;12.88;;
41201;SDS011;26936;50.524;8.684;2023-06-22T02:45:36;17.17;;;13.23;;
41201;SDS011;26936;50.524;8.684;2023-06-22T02:48:01;15.20;;;13.57;;
41201;SDS011;26936;50.524;8.684;2023-06-22T02:50:26;18.13;;;13.95;;
41201;SDS011;26936;50.524;8.684;2023-06-22T02:52:52;19.47;;;13.33;;
41201;SDS011;26936;50.524;8.684;2023-06-22T02:55:17;18.27;;;14.18;;
41201;SDS011;26936;50.524;8.684;2023-06-22T02:57:42;19.63;;;14.27;;
41201;SDS011;26936;50.524;8.684;2023-06-22T03:00:09;15.98;;;14.27;;
41201;SDS011;26936;50.524;8.684;2023-06-22T03:02:45;18.30;;;14.05;;
41201;SDS011;26936;50.524;8.684;2023-06-22T03:05:11;15.80;;;13.43;;
41201;SDS011;26936;50.524;8.684;2023-06-22T03:07:39;19.67;;;14.35;;
41201;SDS011;26936;50.524;8.684;2023-06-22T03:10:06;17.85;;;13.30;;
41201;SDS011;26936;50.524;8.684;2023-06-22T03:12:32;18.20;;;14.15;;
41201;SDS011;26936;50.524;8.684;2023-06-22T03:14:57;16.47;;;14.23;;
41201;SDS011;26936;50.524;8.684;2023-06-22T03:17:23;16.48;;;14.05;;
41201;SDS011;26936;50.524;8.684;2023-06-22T03:19:48;18.02;;;14.38;;
41201;SDS011;26936;50.524;8.684;2023-06-22T03:22:13;14.60;;;12.93;;
41201;SDS011;26936;50.524;8.684;2023-06-22T03:24:40;14.43;;;12.52;;
41201;SDS011;26936;50.524;8.684;2023-06-22T03:27:05;18.03;;;13.20;;
41201;SDS011;26936;50.524;8.684;2023-06-22T03:29:30;16.38;;;12.55;;
41201;SDS011;26936;50.524;8.684;2023-06-22T03:31:56;15.23;;;12.32;;
41201;SDS011;26936;50.524;8.684;2023-06-22T03:34:21;16.85;;;12.75;;
41201;SDS011;26936;50.524;8.684;2023-06-22T03:36:46;16.43;;;14.17;;
41201;SDS011;26936;50.524;8.684;2023-06-22T03:39:12;15.80;;;12.65;;
41201;SDS011;26936;50.524;8.684;2023-06-22T03:41:37;15.15;;;13.27;;
41201;SDS011;26936;50.524;8.684;2023-06-22T03:44:03;16.25;;;13.23;;
41201;SDS011;26936;50.524;8.684;2023-06-22T03:46:28;15.43;;;12.93;;
41201;SDS011;26936;50.524;8.684;2023-06-22T03:48:53;15.03;;;13.27;;
41201;SDS011;26936;50.524;8.684;2023-06-22T03:51:19;16.02;;;13.57;;
41201;SDS011;26936;50.524;8.684;2023-06-22T03:53:44;16.97;;;12.47;;
41201;SDS011;26936;50.524;8.684;2023-06-22T03:56:09;16.63;;;12.45;;
41201;SDS011;26936;50.524;8.684;2023-06-22T03:58:34;16.07;;;13.33;;
41201;SDS011;26936;50.524;8.684;2023-06-22T04:01:01;17.98;;;13.20;;
41201;SDS011;26936;50.524;8.684;2023-06-22T04:03:26;14.80;;;13.20;;
41201;SDS011;26936;50.524;8.684;2023-06-22T04:05:52;16.70;;;13.13;;
41201;SDS011;26936;50.524;8.684;2023-06-22T04:08:17;16.80;;;14.30;;
41201;SDS011;26936;50.524;8.684;2023-06-22T04:10:43;17.17;;;15.30;;
41201;SDS011;26936;50.524;8.684;2023-06-22T04:13:08;17.90;;;14.45;;
41201;SDS011;26936;50.524;8.684;2023-06-22T04:15:34;17.27;;;14.77;;
41201;SDS011;26936;50.524;8.684;2023-06-22T04:17:59;17.38;;;14.25;;
41201;SDS011;26936;50.524;8.684;2023-06-22T04:20:24;20.33;;;14.50;;
41201;SDS011;26936;50.524;8.684;2023-06-22T04:22:53;19.08;;;14.38;;
41201;SDS011;26936;50.524;8.684;2023-06-22T04:25:18;18.15;;;16.00;;
41201;SDS011;26936;50.524;8.684;2023-06-22T04:27:44;19.05;;;16.17;;
41201;SDS011;26936;50.524;8.684;2023-06-22T04:30:10;19.75;;;16.48;;
41201;SDS011;26936;50.524;8.684;2023-06-22T04:32:35;19.80;;;16.00;;
41201;SDS011;26936;50.524;8.684;2023-06-22T04:35:01;21.27;;;16.63;;
41201;SDS011;26936;50.524;8.684;2023-06-22T04:37:29;22.48;;;16.00;;
41201;SDS011;26936;50.524;8.684;2023-06-22T04:39:54;22.20;;;16.20;;
41201;SDS011;26936;50.524;8.684;2023-06-22T04:42:19;20.73;;;15.57;;
41201;SDS011;26936;50.524;8.684;2023-06-22T04:44:45;19.97;;;15.57;;
41201;SDS011;26936;50.524;8.684;2023-06-22T04:47:10;20.43;;;16.27;;
41201;SDS011;26936;50.524;8.684;2023-06-22T04:49:36;21.65;;;16.10;;
41201;SDS011;26936;50.524;8.684;2023-06-22T04:52:02;18.88;;;15.55;;
41201;SDS011;26936;50.524;8.684;2023-06-22T04:54:30;22.70;;;15.15;;
41201;SDS011;26936;50.524;8.684;2023-06-22T04:56:57;19.10;;;15.13;;
41201;SDS011;26936;50.524;8.684;2023-06-22T04:59:23;20.05;;;16.33;;
41201;SDS011;26936;50.524;8.684;2023-06-22T05:01:56;21.50;;;16.35;;
41201;SDS011;26936;50.524;8.684;2023-06-22T05:04:23;25.85;;;17.55;;
41201;SDS011;26936;50.524;8.684;2023-06-22T05:06:49;22.33;;;16.92;;
41201;SDS011;26936;50.524;8.684;2023-06-22T05:09:15;19.23;;;16.90;;
41201;SDS011;26936;50.524;8.684;2023-06-22T05:11:40;19.60;;;16.65;;
41201;SDS011;26936;50.524;8.684;2023-06-22T05:14:06;19.53;;;16.63;;
41201;SDS011;26936;50.524;8.684;2023-06-22T05:16:32;21.48;;;15.82;;
41201;SDS011;26936;50.524;8.684;2023-06-22T05:18:57;25.50;;;18.15;;
41201;SDS011;26936;50.524;8.684;2023-06-22T05:21:23;23.97;;;16.63;;
41201;SDS011;26936;50.524;8.684;2023-06-22T05:23:50;20.95;;;16.30;;
41201;SDS011;26936;50.524;8.684;2023-06-22T05:26:16;22.42;;;15.70;;
41201;SDS011;26936;50.524;8.684;2023-06-22T05:28:41;21.50;;;16.17;;
41201;SDS011;26936;50.524;8.684;2023-06-22T05:31:06;25.00;;;15.05;;
41201;SDS011;26936;50.524;8.684;2023-06-22T05:33:31;24.05;;;17.05;;
41201;SDS011;26936;50.524;8.684;2023-06-22T05:35:57;22.80;;;17.53;;
41201;SDS011;26936;50.524;8.684;2023-06-22T05:38:22;23.73;;;17.47;;
41201;SDS011;26936;50.524;8.684;2023-06-22T05:40:47;28.17;;;17.57;;
41201;SDS011;26936;50.524;8.684;2023-06-22T05:43:12;20.10;;;17.43;;
41201;SDS011;26936;50.524;8.684;2023-06-22T05:45:38;21.80;;;16.83;;
41201;SDS011;26936;50.524;8.684;2023-06-22T05:48:03;26.30;;;17.80;;
41201;SDS011;26936;50.524;8.684;2023-06-22T05:50:29;24.75;;;16.23;;
41201;SDS011;26936;50.524;8.684;2023-06-22T05:52:54;19.97;;;16.03;;
41201;SDS011;26936;50.524;8.684;2023-06-22T05:55:19;21.57;;;16.43;;
41201;SDS011;26936;50.524;8.684;2023-06-22T05:57:44;21.38;;;16.85;;
41201;SDS011;26936;50.524;8.684;2023-06-22T06:00:10;20.90;;;15.85;;
41201;SDS011;26936;50.524;8.684;2023-06-22T06:02:36;20.17;;;15.00;;
41201;SDS011;26936;50.524;8.684;2023-06-22T06:05:02;19.17;;;14.00;;
41201;SDS011;26936;50.524;8.684;2023-06-22T06:07:28;19.20;;;14.55;;
41201;SDS011;26936;50.524;8.684;2023-06-22T06:09:53;17.10;;;12.52;;
41201;SDS011;26936;50.524;8.684;2023-06-22T06:12:18;16.07;;;12.90;;
41201;SDS011;26936;50.524;8.684;2023-06-22T06:14:44;14.80;;;12.40;;
41201;SDS011;26936;50.524;8.684;2023-06-22T06:17:09;15.93;;;11.70;;
41201;SDS011;26936;50.524;8.684;2023-06-22T06:19:34;15.67;;;12.27;;
41201;SDS011;26936;50.524;8.684;2023-06-22T06:21:59;16.83;;;11.17;;
41201;SDS011;26936;50.524;8.684;2023-06-22T06:24:25;14.13;;;11.70;;
41201;SDS011;26936;50.524;8.684;2023-06-22T06:26:51;12.70;;;10.57;;
41201;SDS011;26936;50.524;8.684;2023-06-22T06:29:16;13.00;;;10.40;;
41201;SDS011;26936;50.524;8.684;2023-06-22T06:31:41;14.70;;;11.27;;
41201;SDS011;26936;50.524;8.684;2023-06-22T06:34:06;16.43;;;10.53;;
41201;SDS011;26936;50.524;8.684;2023-06-22T06:36:32;12.33;;;9.67;;
41201;SDS011;26936;50.524;8.684;2023-06-22T06:38:57;15.13;;;10.20;;
41201;SDS011;26936;50.524;8.684;2023-06-22T06:41:22;13.85;;;10.05;;
41201;SDS011;26936;50.524;8.684;2023-06-22T06:43:48;13.23;;;9.95;;
41201;SDS011;26936;50.524;8.684;2023-06-22T06:46:13;12.93;;;9.35;;
41201;SDS011;26936;50.524;8.684;2023-06-22T06:48:38;10.60;;;8.68;;
41201;SDS011;26936;50.524;8.684;2023-06-22T06:51:04;11.85;;;9.88;;
41201;SDS011;26936;50.524;8.684;2023-06-22T06:53:30;11.65;;;8.75;;
41201;SDS011;26936;50.524;8.684;2023-06-22T06:55:55;9.93;;;8.70;;
41201;SDS011;26936;50.524;8.684;2023-06-22T06:58:21;9.48;;;7.90;;
41201;SDS011;26936;50.524;8.684;2023-06-22T07:00:47;12.82;;;9.30;;
41201;SDS011;26936;50.524;8.684;2023-06-22T07:03:13;9.10;;;8.02;;
41201;SDS011;26936;50.524;8.684;2023-06-22T07:05:39;10.55;;;8.30;;
41201;SDS011;26936;50.524;8.684;2023-06-22T07:08:04;8.70;;;7.80;;
41201;SDS011;26936;50.524;8.684;2023-06-22T07:10:30;11.05;;;7.85;;
41201;SDS011;26936;50.524;8.684;2023-06-22T07:12:55;10.07;;;8.20;;
41201;SDS011;26936;50.524;8.684;2023-06-22T07:15:22;8.80;;;7.90;;
41201;SDS011;26936;50.524;8.684;2023-06-22T07:17:47;9.13;;;8.07;;
41201;SDS011;26936;50.524;8.684;2023-06-22T07:20:12;9.10;;;8.17;;
41201;SDS011;26936;50.524;8.684;2023-06-22T07:22:38;9.48;;;7.53;;
41201;SDS011;26936;50.524;8.684;2023-06-22T07:25:04;9.88;;;7.57;;
41201;SDS011;26936;50.524;8.684;2023-06-22T07:27:34;10.18;;;7.35;;
41201;SDS011;26936;50.524;8.684;2023-06-22T07:30:03;9.75;;;7.15;;
41201;SDS011;26936;50.524;8.684;2023-06-22T07:32:29;9.45;;;7.05;;
41201;SDS011;26936;50.524;8.684;2023-06-22T07:34:54;9.13;;;6.73;;
41201;SDS011;26936;50.524;8.684;2023-06-22T07:37:21;7.77;;;6.70;;
41201;SDS011;26936;50.524;8.684;2023-06-22T07:39:46;10.30;;;7.25;;
41201;SDS011;26936;50.524;8.684;2023-06-22T07:42:11;8.73;;;6.90;;
41201;SDS011;26936;50.524;8.684;2023-06-22T07:44:36;9.00;;;6.70;;
41201;SDS011;26936;50.524;8.684;2023-06-22T07:47:02;7.22;;;6.53;;
41201;SDS011;26936;50.524;8.684;2023-06-22T07:49:27;8.52;;;6.43;;
41201;SDS011;26936;50.524;8.684;2023-06-22T07:51:53;7.93;;;6.80;;
41201;SDS011;26936;50.524;8.684;2023-06-22T07:54:18;6.90;;;6.20;;
41201;SDS011;26936;50.524;8.684;2023-06-22T07:56:43;7.50;;;6.60;;
41201;SDS011;26936;50.524;8.684;2023-06-22T07:59:09;7.23;;;6.27;;
41201;SDS011;26936;50.524;8.684;2023-06-22T08:01:34;8.73;;;6.40;;
41201;SDS011;26936;50.524;8.684;2023-06-22T08:03:59;9.33;;;6.10;;
41201;SDS011;26936;50.524;8.684;2023-06-22T08:06:24;10.57;;;6.80;;
41201;SDS011;26936;50.524;8.684;2023-06-22T08:08:50;9.07;;;6.60;;
41201;SDS011;26936;50.524;8.684;2023-06-22T08:11:17;8.20;;;6.60;;
41201;SDS011;26936;50.524;8.684;2023-06-22T08:13:43;8.75;;;6.43;;
41201;SDS011;26936;50.524;8.684;2023-06-22T08:16:08;7.37;;;5.93;;
41201;SDS011;26936;50.524;8.684;2023-06-22T08:18:33;8.00;;;5.85;;
41201;SDS011;26936;50.524;8.684;2023-06-22T08:20:59;7.07;;;6.23;;
41201;SDS011;26936;50.524;8.684;2023-06-22T08:23:24;6.72;;;5.72;;
41201;SDS011;26936;50.524;8.684;2023-06-22T08:25:50;8.48;;;6.50;;
41201;SDS011;26936;50.524;8.684;2023-06-22T08:28:15;9.88;;;6.45;;
41201;SDS011;26936;50.524;8.684;2023-06-22T08:30:40;8.33;;;6.50;;
41201;SDS011;26936;50.524;8.684;2023-06-22T08:33:06;7.37;;;5.80;;
41201;SDS011;26936;50.524;8.684;2023-06-22T08:35:31;8.43;;;5.97;;
41201;SDS011;26936;50.524;8.684;2023-06-22T08:37:56;10.07;;;5.90;;
41201;SDS011;26936;50.524;8.684;2023-06-22T08:40:23;7.13;;;5.47;;
41201;SDS011;26936;50.524;8.684;2023-06-22T08:42:49;7.47;;;5.97;;
41201;SDS011;26936;50.524;8.684;2023-06-22T08:45:14;6.97;;;6.28;;
41201;SDS011;26936;50.524;8.684;2023-06-22T08:47:40;7.57;;;6.35;;
41201;SDS011;26936;50.524;8.684;2023-06-22T08:50:06;8.27;;;6.15;;
41201;SDS011;26936;50.524;8.684;2023-06-22T08:52:33;7.47;;;5.25;;
41201;SDS011;26936;50.524;8.684;2023-06-22T08:54:59;7.47;;;6.40;;
41201;SDS011;26936;50.524;8.684;2023-06-22T08:57:24;8.27;;;6.20;;
41201;SDS011;26936;50.524;8.684;2023-06-22T08:59:49;6.73;;;6.07;;
41201;SDS011;26936;50.524;8.684;2023-06-22T09:02:17;9.20;;;6.00;;
41201;SDS011;26936;50.524;8.684;2023-06-22T09:04:42;7.07;;;6.38;;
41201;SDS011;26936;50.524;8.684;2023-06-22T09:07:08;9.47;;;6.20;;
41201;SDS011;26936;50.524;8.684;2023-06-22T09:09:33;7.97;;;6.13;;
41201;SDS011;26936;50.524;8.684;2023-06-22T09:11:58;8.00;;;5.47;;
41201;SDS011;26936;50.524;8.684;2023-06-22T09:14:23;6.70;;;5.83;;
41201;SDS011;26936;50.524;8.684;2023-06-22T09:16:49;7.37;;;6.10;;
41201;SDS011;26936;50.524;8.684;2023-06-22T09:19:14;7.57;;;6.13;;
41201;SDS011;26936;50.524;8.684;2023-06-22T09:21:39;7.63;;;6.13;;
41201;SDS011;26936;50.524;8.684;2023-06-22T09:24:04;8.00;;;6.07;;
41201;SDS011;26936;50.524;8.684;2023-06-22T09:26:30;8.15;;;5.93;;
41201;SDS011;26936;50.524;8.684;2023-06-22T09:28:55;7.53;;;6.10;;
41201;SDS011;26936;50.524;8.684;2023-06-22T09:31:20;7.07;;;6.00;;
41201;SDS011;26936;50.524;8.684;2023-06-22T09:33:50;7.35;;;6.20;;
41201;SDS011;26936;50.524;8.684;2023-06-22T09:36:17;6.60;;;5.95;;
41201;SDS011;26936;50.524;8.684;2023-06-22T09:38:42;8.55;;;6.00;;
41201;SDS011;26936;50.524;8.684;2023-06-22T09:41:07;8.37;;;6.17;;
41201;SDS011;26936;50.524;8.684;2023-06-22T09:43:32;8.13;;;6.07;;
41201;SDS011;26936;50.524;8.684;2023-06-22T09:46:00;9.18;;;6.20;;
41201;SDS011;26936;50.524;8.684;2023-06-22T09:48:27;6.97;;;6.28;;
41201;SDS011;26936;50.524;8.684;2023-06-22T09:50:52;8.43;;;5.82;;
41201;SDS011;26936;50.524;8.684;2023-06-22T09:53:17;7.77;;;6.20;;
41201;SDS011;26936;50.524;8.684;2023-06-22T09:55:42;6.47;;;5.87;;
41201;SDS011;26936;50.524;8.684;2023-06-22T09:58:08;6.37;;;5.77;;
41201;SDS011;26936;50.524;8.684;2023-06-22T10:00:33;10.05;;;6.25;;
41201;SDS011;26936;50.524;8.684;2023-06-22T10:02:59;8.60;;;6.87;;
41201;SDS011;26936;50.524;8.684;2023-06-22T10:05:24;9.63;;;6.57;;
41201;SDS011;26936;50.524;8.684;2023-06-22T10:07:50;8.15;;;6.57;;
41201;SDS011;26936;50.524;8.684;2023-06-22T10:10:15;7.78;;;6.40;;
41201;SDS011;26936;50.524;8.684;2023-06-22T10:12:41;7.38;;;6.63;;
41201;SDS011;26936;50.524;8.684;2023-06-22T10:15:09;7.18;;;6.47;;
41201;SDS011;26936;50.524;8.684;2023-06-22T10:17:35;7.72;;;6.38;;
41201;SDS011;26936;50.524;8.684;2023-06-22T10:20:00;8.47;;;6.77;;
41201;SDS011;26936;50.524;8.684;2023-06-22T10:22:30;7.20;;;6.43;;
41201;SDS011;26936;50.524;8.684;2023-06-22T10:24:56;6.93;;;6.23;;
41201;SDS011;26936;50.524;8.684;2023-06-22T10:27:21;8.40;;;6.57;;
41201;SDS011;26936;50.524;8.684;2023-06-22T10:29:46;6.77;;;6.13;;
41201;SDS011;26936;50.524;8.684;2023-06-22T10:32:11;8.60;;;6.47;;
41201;SDS011;26936;50.524;8.684;2023-06-22T10:34:36;7.30;;;5.73;;
41201;SDS011;26936;50.524;8.684;2023-06-22T10:37:02;9.40;;;6.33;;
41201;SDS011;26936;50.524;8.684;2023-06-22T10:39:27;7.72;;;6.25;;
41201;SDS011;26936;50.524;8.684;2023-06-22T10:41:52;6.53;;;5.67;;
41201;SDS011;26936;50.524;8.684;2023-06-22T10:44:17;8.27;;;5.83;;
41201;SDS011;26936;50.524;8.684;2023-06-22T10:46:43;6.50;;;5.47;;
41201;SDS011;26936;50.524;8.684;2023-06-22T10:49:08;6.73;;;5.47;;
41201;SDS011;26936;50.524;8.684;2023-06-22T10:51:33;5.87;;;5.27;;
41201;SDS011;26936;50.524;8.684;2023-06-22T10:53:58;6.47;;;5.75;;
41201;SDS011;26936;50.524;8.684;2023-06-22T10:56:24;7.90;;;5.53;;
41201;SDS011;26936;50.524;8.684;2023-06-22T10:58:49;7.80;;;5.87;;
41201;SDS011;26936;50.524;8.684;2023-06-22T11:01:14;7.93;;;5.43;;
41201;SDS011;26936;50.524;8.684;2023-06-22T11:03:40;6.67;;;5.67;;
41201;SDS011;26936;50.524;8.684;2023-06-22T11:06:05;5.73;;;5.10;;
41201;SDS011;26936;50.524;8.684;2023-06-22T11:08:30;6.83;;;5.37;;
41201;SDS011;26936;50.524;8.684;2023-06-22T11:10:55;8.13;;;5.57;;
41201;SDS011;26936;50.524;8.684;2023-06-22T11:13:21;7.80;;;5.53;;
41201;SDS011;26936;50.524;8.684;2023-06-22T11:15:46;7.90;;;5.43;;
41201;SDS011;26936;50.524;8.684;2023-06-22T11:18:11;7.00;;;5.17;;
41201;SDS011;26936;50.524;8.684;2023-06-22T11:20:36;7.30;;;5.47;;
41201;SDS011;26936;50.524;8.684;2023-06-22T11:23:06;5.78;;;5.15;;
41201;SDS011;26936;50.524;8.684;2023-06-22T11:25:32;6.22;;;4.90;;
41201;SDS011;26936;50.524;8.684;2023-06-22T11:28:00;6.00;;;5.03;;
41201;SDS011;26936;50.524;8.684;2023-06-22T11:30:29;6.32;;;4.85;;
41201;SDS011;26936;50.524;8.684;2023-06-22T11:32:56;7.63;;;4.80;;
41201;SDS011;26936;50.524;8.684;2023-06-22T11:35:21;6.75;;;4.53;;
41201;SDS011;26936;50.524;8.684;2023-06-22T11:37:47;7.53;;;4.67;;
41201;SDS011;26936;50.524;8.684;2023-06-22T11:40:12;7.67;;;4.60;;
41201;SDS011;26936;50.524;8.684;2023-06-22T11:42:37;7.30;;;5.10;;
41201;SDS011;26936;50.524;8.684;2023-06-22T11:45:04;8.53;;;4.90;;
41201;SDS011;26936;50.524;8.684;2023-06-22T11:47:30;6.50;;;4.65;;
41201;SDS011;26936;50.524;8.684;2023-06-22T11:49:55;5.23;;;4.70;;
41201;SDS011;26936;50.524;8.684;2023-06-22T11:52:21;8.57;;;4.78;;
41201;SDS011;26936;50.524;8.684;2023-06-22T11:54:46;8.38;;;4.60;;
41201;SDS011;26936;50.524;8.684;2023-06-22T11:57:11;8.27;;;4.00;;
41201;SDS011;26936;50.524;8.684;2023-06-22T11:59:36;7.57;;;4.53;;
41201;SDS011;26936;50.524;8.684;2023-06-22T12:02:02;6.77;;;4.50;;
41201;SDS011;26936;50.524;8.684;2023-06-22T12:04:27;6.45;;;4.47;;
41201;SDS011;26936;50.524;8.684;2023-06-22T12:06:52;9.53;;;4.63;;
41201;SDS011;26936;50.524;8.684;2023-06-22T12:09:18;5.60;;;4.57;;
41201;SDS011;26936;50.524;8.684;2023-06-22T12:11:43;8.53;;;5.07;;
41201;SDS011;26936;50.524;8.684;2023-06-22T12:14:08;5.97;;;4.20;;
41201;SDS011;26936;50.524;8.684;2023-06-22T12:16:33;7.50;;;4.37;;
41201;SDS011;26936;50.524;8.684;2023-06-22T12:18:59;8.30;;;4.40;;
41201;SDS011;26936;50.524;8.684;2023-06-22T12:21:24;7.83;;;4.50;;
41201;SDS011;26936;50.524;8.684;2023-06-22T12:23:49;7.17;;;4.47;;
41201;SDS011;26936;50.524;8.684;2023-06-22T12:26:14;6.50;;;4.60;;
41201;SDS011;26936;50.524;8.684;2023-06-22T12:28:40;7.18;;;4.50;;
41201;SDS011;26936;50.524;8.684;2023-06-22T12:31:05;7.00;;;4.83;;
41201;SDS011;26936;50.524;8.684;2023-06-22T12:33:31;6.97;;;4.27;;
41201;SDS011;26936;50.524;8.684;2023-06-22T12:35:56;6.67;;;5.20;;
41201;SDS011;26936;50.524;8.684;2023-06-22T12:38:22;7.18;;;4.78;;
41201;SDS011;26936;50.524;8.684;2023-06-22T12:40:47;6.82;;;4.82;;
41201;SDS011;26936;50.524;8.684;2023-06-22T12:43:14;6.63;;;4.93;;
41201;SDS011;26936;50.524;8.684;2023-06-22T12:45:39;8.13;;;5.03;;
41201;SDS011;26936;50.524;8.684;2023-06-22T12:48:05;7.88;;;5.28;;
41201;SDS011;26936;50.524;8.684;2023-06-22T12:50:30;8.10;;;5.40;;
41201;SDS011;26936;50.524;8.684;2023-06-22T12:52:56;10.47;;;5.47;;
41201;SDS011;26936;50.524;8.684;2023-06-22T12:55:21;7.82;;;5.13;;
41201;SDS011;26936;50.524;8.684;2023-06-22T12:57:46;7.57;;;5.60;;
41201;SDS011;26936;50.524;8.684;2023-06-22T13:00:12;8.83;;;5.07;;
41201;SDS011;26936;50.524;8.684;2023-06-22T13:02:37;6.88;;;5.32;;
41201;SDS011;26936;50.524;8.684;2023-06-22T13:05:03;9.63;;;5.30;;
41201;SDS011;26936;50.524;8.684;2023-06-22T13:07:30;10.65;;;5.80;;
41201;SDS011;26936;50.524;8.684;2023-06-22T13:09:55;7.03;;;5.30;;
41201;SDS011;26936;50.524;8.684;2023-06-22T13:12:20;6.90;;;5.40;;
41201;SDS011;26936;50.524;8.684;2023-06-22T13:14:46;9.63;;;5.75;;
41201;SDS011;26936;50.524;8.684;2023-06-22T13:17:12;7.70;;;5.82;;
41201;SDS011;26936;50.524;8.684;2023-06-22T13:19:37;9.15;;;5.43;;
41201;SDS011;26936;50.524;8.684;2023-06-22T13:22:03;8.97;;;5.80;;
41201;SDS011;26936;50.524;8.684;2023-06-22T13:24:28;8.40;;;5.75;;
41201;SDS011;26936;50.524;8.684;2023-06-22T13:26:54;11.43;;;6.15;;
41201;SDS011;26936;50.524;8.684;2023-06-22T13:29:20;9.82;;;6.07;;
41201;SDS011;26936;50.524;8.684;2023-06-22T13:31:45;8.77;;;5.70;;
41201;SDS011;26936;50.524;8.684;2023-06-22T13:34:10;8.53;;;6.00;;
41201;SDS011;26936;50.524;8.684;2023-06-22T13:36:35;7.28;;;5.72;;
41201;SDS011;26936;50.524;8.684;2023-06-22T13:39:01;8.93;;;6.10;;
41201;SDS011;26936;50.524;8.684;2023-06-22T13:41:26;8.60;;;5.97;;
41201;SDS011;26936;50.524;8.684;2023-06-22T13:43:51;8.30;;;5.57;;
41201;SDS011;26936;50.524;8.684;2023-06-22T13:46:17;9.88;;;6.47;;
41201;SDS011;26936;50.524;8.684;2023-06-22T13:48:42;11.75;;;6.40;;
41201;SDS011;26936;50.524;8.684;2023-06-22T13:51:07;10.77;;;5.50;;
41201;SDS011;26936;50.524;8.684;2023-06-22T13:53:32;11.47;;;6.10;;
41201;SDS011;26936;50.524;8.684;2023-06-22T13:55:58;10.10;;;6.20;;
41201;SDS011;26936;50.524;8.684;2023-06-22T13:58:23;8.33;;;5.83;;
41201;SDS011;26936;50.524;8.684;2023-06-22T14:00:48;12.70;;;6.37;;
41201;SDS011;26936;50.524;8.684;2023-06-22T14:03:14;11.13;;;6.05;;
41201;SDS011;26936;50.524;8.684;2023-06-22T14:05:41;8.38;;;6.03;;
41201;SDS011;26936;50.524;8.684;2023-06-22T14:08:06;11.95;;;5.82;;
41201;SDS011;26936;50.524;8.684;2023-06-22T14:10:31;11.43;;;6.17;;
41201;SDS011;26936;50.524;8.684;2023-06-22T14:12:57;11.83;;;6.67;;
41201;SDS011;26936;50.524;8.684;2023-06-22T14:15:22;12.10;;;6.27;;
41201;SDS011;26936;50.524;8.684;2023-06-22T14:17:47;11.97;;;6.83;;
41201;SDS011;26936;50.524;8.684;2023-06-22T14:20:12;10.13;;;6.83;;
41201;SDS011;26936;50.524;8.684;2023-06-22T14:22:38;10.53;;;7.37;;
41201;SDS011;26936;50.524;8.684;2023-06-22T14:25:04;9.90;;;7.22;;
41201;SDS011;26936;50.524;8.684;2023-06-22T14:27:30;11.43;;;6.53;;
41201;SDS011;26936;50.524;8.684;2023-06-22T14:29:55;11.70;;;7.32;;
41201;SDS011;26936;50.524;8.684;2023-06-22T14:32:20;12.03;;;7.40;;
41201;SDS011;26936;50.524;8.684;2023-06-22T14:34:46;10.90;;;7.20;;
41201;SDS011;26936;50.524;8.684;2023-06-22T14:37:11;10.57;;;6.50;;
41201;SDS011;26936;50.524;8.684;2023-06-22T14:39:37;13.45;;;6.88;;